Terminal Aerodrome Forecast
Issued by NWS

Home | Current Version | Previous Version | Graphics & Text | Print | Product List | Glossary On
Versions: 1 2 3 4 5 6 7 8 9 10 11 12 13 14 15 16 17 18 19 20 21 22
000
FTUS43 KICT 250719 AAA
TAFHUT
TAF AMD
KHUT 250719Z 2507/2606 34016KT P6SM -RA SCT005 OVC008
     FM251400 34015G25KT P6SM SCT009 OVC015
     FM251800 34015G25KT P6SM SCT015 OVC025
     FM252200 34012KT P6SM BKN025
     FM260300 VRB05KT P6SM SCT250=

USA.gov is the U.S. government's official web portal to all federal, state and local government web resources and services.